Terminal Aerodrome Forecast
Issued by NWS Cleveland, OH

Home | Current Version | Previous Version | Graphics & Text | Print | Product List | Glossary On
Versions: 1 2 3 4 5 6 7 8 9 10 11 12 13 14 15 16 17 18 19 20 21 22 23 24
510
FTUS41 KCLE 152320
TAFTOL
TAF
KTOL 152320Z 1600/1624 VRB03KT P6SM SCT100 OVC200
     FM161100 09005KT P6SM BKN050 OVC100
     FM161500 09005KT 4SM BR SCT015 OVC035
     FM161900 09005KT 2SM -RA BR OVC008=

USA.gov is the U.S. government's official web portal to all federal, state and local government web resources and services.